sensor_id;sensor_type;location;lat;lon;timestamp;P1;durP1;ratioP1;P2;durP2;ratioP2
75993;SDS011;64680;53.800;9.988;2024-02-15T00:00:12;20.50;;;6.95;;
75993;SDS011;64680;53.800;9.988;2024-02-15T00:02:38;19.58;;;7.47;;
75993;SDS011;64680;53.800;9.988;2024-02-15T00:05:03;18.27;;;7.45;;
75993;SDS011;64680;53.800;9.988;2024-02-15T00:07:29;18.27;;;6.90;;
75993;SDS011;64680;53.800;9.988;2024-02-15T00:09:55;19.33;;;6.80;;
75993;SDS011;64680;53.800;9.988;2024-02-15T00:12:21;18.35;;;6.97;;
75993;SDS011;64680;53.800;9.988;2024-02-15T00:14:46;16.10;;;6.60;;
75993;SDS011;64680;53.800;9.988;2024-02-15T00:17:12;17.48;;;6.82;;
75993;SDS011;64680;53.800;9.988;2024-02-15T00:19:38;19.65;;;7.47;;
75993;SDS011;64680;53.800;9.988;2024-02-15T00:22:06;16.50;;;6.85;;
75993;SDS011;64680;53.800;9.988;2024-02-15T00:24:32;17.40;;;7.10;;
75993;SDS011;64680;53.800;9.988;2024-02-15T00:26:57;19.30;;;7.63;;
75993;SDS011;64680;53.800;9.988;2024-02-15T00:29:23;18.40;;;7.38;;
75993;SDS011;64680;53.800;9.988;2024-02-15T00:31:49;20.20;;;7.43;;
75993;SDS011;64680;53.800;9.988;2024-02-15T00:34:15;20.13;;;7.60;;
75993;SDS011;64680;53.800;9.988;2024-02-15T00:36:44;18.98;;;7.40;;
75993;SDS011;64680;53.800;9.988;2024-02-15T00:39:10;20.88;;;7.35;;
75993;SDS011;64680;53.800;9.988;2024-02-15T00:41:37;19.80;;;7.53;;
75993;SDS011;64680;53.800;9.988;2024-02-15T00:44:08;19.10;;;7.43;;
75993;SDS011;64680;53.800;9.988;2024-02-15T00:46:35;20.90;;;8.65;;
75993;SDS011;64680;53.800;9.988;2024-02-15T00:49:01;24.77;;;8.88;;
75993;SDS011;64680;53.800;9.988;2024-02-15T00:51:27;19.88;;;7.50;;
75993;SDS011;64680;53.800;9.988;2024-02-15T00:53:52;20.42;;;7.72;;
75993;SDS011;64680;53.800;9.988;2024-02-15T00:56:18;19.15;;;7.90;;
75993;SDS011;64680;53.800;9.988;2024-02-15T00:58:46;21.30;;;8.35;;
75993;SDS011;64680;53.800;9.988;2024-02-15T01:01:12;24.17;;;7.90;;
75993;SDS011;64680;53.800;9.988;2024-02-15T01:03:38;22.60;;;8.27;;
75993;SDS011;64680;53.800;9.988;2024-02-15T01:06:03;19.13;;;8.35;;
75993;SDS011;64680;53.800;9.988;2024-02-15T01:08:30;25.15;;;8.23;;
75993;SDS011;64680;53.800;9.988;2024-02-15T01:10:56;25.45;;;8.57;;
75993;SDS011;64680;53.800;9.988;2024-02-15T01:13:21;27.25;;;8.93;;
75993;SDS011;64680;53.800;9.988;2024-02-15T01:15:47;21.10;;;7.88;;
75993;SDS011;64680;53.800;9.988;2024-02-15T01:18:13;23.40;;;8.70;;
75993;SDS011;64680;53.800;9.988;2024-02-15T01:20:39;18.92;;;8.02;;
75993;SDS011;64680;53.800;9.988;2024-02-15T01:23:04;19.55;;;7.00;;
75993;SDS011;64680;53.800;9.988;2024-02-15T01:27:58;16.90;;;6.78;;
75993;SDS011;64680;53.800;9.988;2024-02-15T01:30:23;15.38;;;6.35;;
75993;SDS011;64680;53.800;9.988;2024-02-15T01:32:51;15.38;;;6.00;;
75993;SDS011;64680;53.800;9.988;2024-02-15T01:35:17;20.52;;;6.80;;
75993;SDS011;64680;53.800;9.988;2024-02-15T01:37:42;21.42;;;7.00;;
75993;SDS011;64680;53.800;9.988;2024-02-15T01:40:08;18.85;;;6.78;;
75993;SDS011;64680;53.800;9.988;2024-02-15T01:42:37;17.23;;;6.18;;
75993;SDS011;64680;53.800;9.988;2024-02-15T01:45:04;14.73;;;6.47;;
75993;SDS011;64680;53.800;9.988;2024-02-15T01:47:30;18.05;;;7.10;;
75993;SDS011;64680;53.800;9.988;2024-02-15T01:49:56;19.67;;;7.30;;
75993;SDS011;64680;53.800;9.988;2024-02-15T01:52:22;16.58;;;6.68;;
75993;SDS011;64680;53.800;9.988;2024-02-15T01:54:48;14.23;;;6.10;;
75993;SDS011;64680;53.800;9.988;2024-02-15T01:57:18;13.25;;;6.15;;
75993;SDS011;64680;53.800;9.988;2024-02-15T01:59:46;17.35;;;6.72;;
75993;SDS011;64680;53.800;9.988;2024-02-15T02:02:12;15.02;;;6.03;;
75993;SDS011;64680;53.800;9.988;2024-02-15T02:04:41;13.43;;;6.15;;
75993;SDS011;64680;53.800;9.988;2024-02-15T02:07:07;13.85;;;5.63;;
75993;SDS011;64680;53.800;9.988;2024-02-15T02:09:33;12.43;;;5.53;;
75993;SDS011;64680;53.800;9.988;2024-02-15T02:11:58;14.07;;;6.30;;
75993;SDS011;64680;53.800;9.988;2024-02-15T02:14:25;11.38;;;5.60;;
75993;SDS011;64680;53.800;9.988;2024-02-15T02:16:51;14.52;;;5.85;;
75993;SDS011;64680;53.800;9.988;2024-02-15T02:19:16;15.10;;;6.38;;
75993;SDS011;64680;53.800;9.988;2024-02-15T02:21:42;16.88;;;6.70;;
75993;SDS011;64680;53.800;9.988;2024-02-15T02:24:13;13.02;;;6.13;;
75993;SDS011;64680;53.800;9.988;2024-02-15T02:26:39;16.38;;;6.65;;
75993;SDS011;64680;53.800;9.988;2024-02-15T02:29:05;16.50;;;6.20;;
75993;SDS011;64680;53.800;9.988;2024-02-15T02:31:35;15.88;;;6.57;;
75993;SDS011;64680;53.800;9.988;2024-02-15T02:34:01;15.20;;;7.05;;
75993;SDS011;64680;53.800;9.988;2024-02-15T02:36:27;13.65;;;6.38;;
75993;SDS011;64680;53.800;9.988;2024-02-15T02:38:54;17.10;;;8.05;;
75993;SDS011;64680;53.800;9.988;2024-02-15T02:41:20;17.33;;;7.30;;
75993;SDS011;64680;53.800;9.988;2024-02-15T02:43:46;20.85;;;7.65;;
75993;SDS011;64680;53.800;9.988;2024-02-15T02:46:12;23.98;;;9.07;;
75993;SDS011;64680;53.800;9.988;2024-02-15T02:48:38;26.60;;;8.25;;
75993;SDS011;64680;53.800;9.988;2024-02-15T02:51:04;23.50;;;8.40;;
75993;SDS011;64680;53.800;9.988;2024-02-15T02:53:31;20.25;;;9.10;;
75993;SDS011;64680;53.800;9.988;2024-02-15T02:55:56;18.92;;;7.25;;
75993;SDS011;64680;53.800;9.988;2024-02-15T02:58:22;19.38;;;7.78;;
75993;SDS011;64680;53.800;9.988;2024-02-15T03:00:48;21.25;;;8.50;;
75993;SDS011;64680;53.800;9.988;2024-02-15T03:03:14;19.52;;;7.80;;
75993;SDS011;64680;53.800;9.988;2024-02-15T03:05:40;17.10;;;7.05;;
75993;SDS011;64680;53.800;9.988;2024-02-15T03:08:08;19.83;;;7.82;;
75993;SDS011;64680;53.800;9.988;2024-02-15T03:10:34;17.20;;;7.43;;
75993;SDS011;64680;53.800;9.988;2024-02-15T03:13:00;18.33;;;7.28;;
75993;SDS011;64680;53.800;9.988;2024-02-15T03:15:25;18.23;;;7.30;;
75993;SDS011;64680;53.800;9.988;2024-02-15T03:17:51;17.80;;;8.52;;
75993;SDS011;64680;53.800;9.988;2024-02-15T03:20:17;17.90;;;7.18;;
75993;SDS011;64680;53.800;9.988;2024-02-15T03:22:56;15.57;;;7.10;;
75993;SDS011;64680;53.800;9.988;2024-02-15T03:25:23;17.75;;;7.47;;
75993;SDS011;64680;53.800;9.988;2024-02-15T03:27:49;15.35;;;7.05;;
75993;SDS011;64680;53.800;9.988;2024-02-15T03:30:17;21.92;;;7.50;;
75993;SDS011;64680;53.800;9.988;2024-02-15T03:32:44;20.60;;;7.82;;
75993;SDS011;64680;53.800;9.988;2024-02-15T03:35:11;18.38;;;8.00;;
75993;SDS011;64680;53.800;9.988;2024-02-15T03:40:05;25.38;;;8.95;;
75993;SDS011;64680;53.800;9.988;2024-02-15T03:42:31;29.65;;;10.20;;
75993;SDS011;64680;53.800;9.988;2024-02-15T03:44:56;28.27;;;9.25;;
75993;SDS011;64680;53.800;9.988;2024-02-15T03:47:22;27.00;;;10.27;;
75993;SDS011;64680;53.800;9.988;2024-02-15T03:49:48;24.98;;;10.60;;
75993;SDS011;64680;53.800;9.988;2024-02-15T03:52:14;27.58;;;10.00;;
75993;SDS011;64680;53.800;9.988;2024-02-15T03:54:40;30.10;;;10.38;;
75993;SDS011;64680;53.800;9.988;2024-02-15T03:57:08;26.05;;;10.77;;
75993;SDS011;64680;53.800;9.988;2024-02-15T03:59:33;27.52;;;10.73;;
75993;SDS011;64680;53.800;9.988;2024-02-15T04:02:00;30.10;;;11.32;;
75993;SDS011;64680;53.800;9.988;2024-02-15T04:04:28;27.17;;;10.00;;
75993;SDS011;64680;53.800;9.988;2024-02-15T04:06:55;22.98;;;9.85;;
75993;SDS011;64680;53.800;9.988;2024-02-15T04:09:21;28.45;;;10.55;;
75993;SDS011;64680;53.800;9.988;2024-02-15T04:11:47;32.42;;;9.98;;
75993;SDS011;64680;53.800;9.988;2024-02-15T04:14:17;31.33;;;11.35;;
75993;SDS011;64680;53.800;9.988;2024-02-15T04:16:43;26.90;;;10.20;;
75993;SDS011;64680;53.800;9.988;2024-02-15T04:19:10;30.08;;;10.05;;
75993;SDS011;64680;53.800;9.988;2024-02-15T04:21:36;41.95;;;11.10;;
75993;SDS011;64680;53.800;9.988;2024-02-15T04:24:01;28.13;;;10.50;;
75993;SDS011;64680;53.800;9.988;2024-02-15T04:26:27;34.20;;;10.75;;
75993;SDS011;64680;53.800;9.988;2024-02-15T04:28:55;31.42;;;11.02;;
75993;SDS011;64680;53.800;9.988;2024-02-15T04:31:20;34.83;;;11.52;;
75993;SDS011;64680;53.800;9.988;2024-02-15T04:33:54;37.47;;;12.23;;
75993;SDS011;64680;53.800;9.988;2024-02-15T04:36:21;40.83;;;12.52;;
75993;SDS011;64680;53.800;9.988;2024-02-15T04:38:50;32.13;;;12.07;;
75993;SDS011;64680;53.800;9.988;2024-02-15T04:41:20;35.58;;;12.27;;
75993;SDS011;64680;53.800;9.988;2024-02-15T04:43:48;35.22;;;11.40;;
75993;SDS011;64680;53.800;9.988;2024-02-15T04:46:14;34.88;;;12.30;;
75993;SDS011;64680;53.800;9.988;2024-02-15T04:48:40;30.00;;;12.10;;
75993;SDS011;64680;53.800;9.988;2024-02-15T04:51:09;31.92;;;11.85;;
75993;SDS011;64680;53.800;9.988;2024-02-15T04:53:36;37.13;;;12.05;;
75993;SDS011;64680;53.800;9.988;2024-02-15T04:56:03;32.70;;;11.52;;
75993;SDS011;64680;53.800;9.988;2024-02-15T04:58:36;35.28;;;12.90;;
75993;SDS011;64680;53.800;9.988;2024-02-15T05:01:02;35.92;;;12.65;;
75993;SDS011;64680;53.800;9.988;2024-02-15T05:03:30;33.30;;;11.57;;
75993;SDS011;64680;53.800;9.988;2024-02-15T05:06:00;48.65;;;12.38;;
75993;SDS011;64680;53.800;9.988;2024-02-15T05:08:26;36.45;;;10.82;;
75993;SDS011;64680;53.800;9.988;2024-02-15T05:10:53;35.85;;;11.80;;
75993;SDS011;64680;53.800;9.988;2024-02-15T05:13:24;33.63;;;11.75;;
75993;SDS011;64680;53.800;9.988;2024-02-15T05:15:50;42.42;;;13.63;;
75993;SDS011;64680;53.800;9.988;2024-02-15T05:18:15;35.05;;;11.02;;
75993;SDS011;64680;53.800;9.988;2024-02-15T05:20:42;30.52;;;11.20;;
75993;SDS011;64680;53.800;9.988;2024-02-15T05:23:08;31.98;;;11.25;;
75993;SDS011;64680;53.800;9.988;2024-02-15T05:25:33;29.98;;;11.25;;
75993;SDS011;64680;53.800;9.988;2024-02-15T05:28:00;29.60;;;10.82;;
75993;SDS011;64680;53.800;9.988;2024-02-15T05:30:26;32.80;;;12.13;;
75993;SDS011;64680;53.800;9.988;2024-02-15T05:32:52;36.25;;;10.60;;
75993;SDS011;64680;53.800;9.988;2024-02-15T05:35:18;32.47;;;11.70;;
75993;SDS011;64680;53.800;9.988;2024-02-15T05:37:44;31.63;;;11.02;;
75993;SDS011;64680;53.800;9.988;2024-02-15T05:40:11;32.25;;;11.23;;
75993;SDS011;64680;53.800;9.988;2024-02-15T05:42:41;34.35;;;10.77;;
75993;SDS011;64680;53.800;9.988;2024-02-15T05:47:54;26.23;;;9.95;;
75993;SDS011;64680;53.800;9.988;2024-02-15T05:50:20;26.70;;;10.43;;
75993;SDS011;64680;53.800;9.988;2024-02-15T05:52:46;29.17;;;11.18;;
75993;SDS011;64680;53.800;9.988;2024-02-15T05:55:12;28.85;;;10.75;;
75993;SDS011;64680;53.800;9.988;2024-02-15T05:57:44;27.20;;;9.85;;
75993;SDS011;64680;53.800;9.988;2024-02-15T06:00:10;32.75;;;10.32;;
75993;SDS011;64680;53.800;9.988;2024-02-15T06:02:36;26.33;;;10.10;;
75993;SDS011;64680;53.800;9.988;2024-02-15T06:05:02;27.33;;;10.35;;
75993;SDS011;64680;53.800;9.988;2024-02-15T06:07:29;27.38;;;9.23;;
75993;SDS011;64680;53.800;9.988;2024-02-15T06:09:57;26.55;;;10.40;;
75993;SDS011;64680;53.800;9.988;2024-02-15T06:12:23;37.72;;;12.52;;
75993;SDS011;64680;53.800;9.988;2024-02-15T06:14:48;29.13;;;10.32;;
75993;SDS011;64680;53.800;9.988;2024-02-15T06:17:14;27.95;;;9.70;;
75993;SDS011;64680;53.800;9.988;2024-02-15T06:19:40;34.63;;;10.98;;
75993;SDS011;64680;53.800;9.988;2024-02-15T06:22:05;26.63;;;10.13;;
75993;SDS011;64680;53.800;9.988;2024-02-15T06:24:31;24.42;;;9.75;;
75993;SDS011;64680;53.800;9.988;2024-02-15T06:26:58;31.08;;;11.23;;
75993;SDS011;64680;53.800;9.988;2024-02-15T06:29:27;31.98;;;11.27;;
75993;SDS011;64680;53.800;9.988;2024-02-15T06:32:11;25.98;;;9.85;;
75993;SDS011;64680;53.800;9.988;2024-02-15T06:34:56;33.97;;;10.55;;
75993;SDS011;64680;53.800;9.988;2024-02-15T06:37:40;36.33;;;11.75;;
75993;SDS011;64680;53.800;9.988;2024-02-15T06:40:24;35.17;;;12.02;;
75993;SDS011;64680;53.800;9.988;2024-02-15T06:42:50;28.58;;;10.35;;
75993;SDS011;64680;53.800;9.988;2024-02-15T06:45:16;40.95;;;12.95;;
75993;SDS011;64680;53.800;9.988;2024-02-15T06:47:42;34.25;;;11.23;;
75993;SDS011;64680;53.800;9.988;2024-02-15T06:50:12;30.83;;;11.38;;
75993;SDS011;64680;53.800;9.988;2024-02-15T06:52:39;36.03;;;10.68;;
75993;SDS011;64680;53.800;9.988;2024-02-15T06:55:08;32.08;;;11.50;;
75993;SDS011;64680;53.800;9.988;2024-02-15T06:57:36;36.97;;;11.73;;
75993;SDS011;64680;53.800;9.988;2024-02-15T07:00:05;30.23;;;10.85;;
75993;SDS011;64680;53.800;9.988;2024-02-15T07:02:34;33.53;;;11.23;;
75993;SDS011;64680;53.800;9.988;2024-02-15T07:05:00;36.58;;;11.32;;
75993;SDS011;64680;53.800;9.988;2024-02-15T07:07:27;37.03;;;13.05;;
75993;SDS011;64680;53.800;9.988;2024-02-15T07:09:53;42.38;;;12.75;;
75993;SDS011;64680;53.800;9.988;2024-02-15T07:12:19;32.83;;;10.77;;
75993;SDS011;64680;53.800;9.988;2024-02-15T07:14:46;37.47;;;12.20;;
75993;SDS011;64680;53.800;9.988;2024-02-15T07:17:12;32.60;;;12.40;;
75993;SDS011;64680;53.800;9.988;2024-02-15T07:19:44;35.65;;;12.23;;
75993;SDS011;64680;53.800;9.988;2024-02-15T07:22:14;29.48;;;10.75;;
75993;SDS011;64680;53.800;9.988;2024-02-15T07:24:40;35.40;;;12.80;;
75993;SDS011;64680;53.800;9.988;2024-02-15T07:27:05;35.15;;;10.15;;
75993;SDS011;64680;53.800;9.988;2024-02-15T07:29:31;33.33;;;11.30;;
75993;SDS011;64680;53.800;9.988;2024-02-15T07:31:58;27.08;;;10.50;;
75993;SDS011;64680;53.800;9.988;2024-02-15T07:34:27;35.33;;;11.95;;
75993;SDS011;64680;53.800;9.988;2024-02-15T07:36:52;28.48;;;10.13;;
75993;SDS011;64680;53.800;9.988;2024-02-15T07:39:18;29.13;;;10.38;;
75993;SDS011;64680;53.800;9.988;2024-02-15T07:41:56;30.85;;;11.27;;
75993;SDS011;64680;53.800;9.988;2024-02-15T07:44:25;29.08;;;9.90;;
75993;SDS011;64680;53.800;9.988;2024-02-15T07:46:52;32.28;;;10.80;;
75993;SDS011;64680;53.800;9.988;2024-02-15T07:49:18;36.55;;;10.70;;
75993;SDS011;64680;53.800;9.988;2024-02-15T07:51:43;34.75;;;11.80;;
75993;SDS011;64680;53.800;9.988;2024-02-15T07:54:10;30.95;;;10.40;;
75993;SDS011;64680;53.800;9.988;2024-02-15T07:56:36;31.13;;;11.02;;
75993;SDS011;64680;53.800;9.988;2024-02-15T07:59:03;26.83;;;10.38;;
75993;SDS011;64680;53.800;9.988;2024-02-15T08:01:29;35.58;;;11.55;;
75993;SDS011;64680;53.800;9.988;2024-02-15T08:04:18;31.02;;;11.95;;
75993;SDS011;64680;53.800;9.988;2024-02-15T08:07:34;35.25;;;12.02;;
75993;SDS011;64680;53.800;9.988;2024-02-15T08:13:15;31.30;;;11.13;;
75993;SDS011;64680;53.800;9.988;2024-02-15T08:15:40;36.50;;;12.48;;
75993;SDS011;64680;53.800;9.988;2024-02-15T08:18:13;32.20;;;10.80;;
75993;SDS011;64680;53.800;9.988;2024-02-15T08:20:41;29.17;;;10.40;;
75993;SDS011;64680;53.800;9.988;2024-02-15T08:23:09;29.58;;;10.82;;
75993;SDS011;64680;53.800;9.988;2024-02-15T08:25:37;27.45;;;10.43;;
75993;SDS011;64680;53.800;9.988;2024-02-15T08:28:05;32.92;;;10.23;;
75993;SDS011;64680;53.800;9.988;2024-02-15T08:30:32;30.08;;;11.23;;
75993;SDS011;64680;53.800;9.988;2024-02-15T08:32:58;26.88;;;11.00;;
75993;SDS011;64680;53.800;9.988;2024-02-15T08:35:24;32.65;;;10.55;;
75993;SDS011;64680;53.800;9.988;2024-02-15T08:37:49;31.73;;;10.77;;
75993;SDS011;64680;53.800;9.988;2024-02-15T08:40:17;27.05;;;9.88;;
75993;SDS011;64680;53.800;9.988;2024-02-15T08:42:47;26.30;;;10.45;;
75993;SDS011;64680;53.800;9.988;2024-02-15T08:45:15;30.73;;;10.80;;
75993;SDS011;64680;53.800;9.988;2024-02-15T08:47:57;25.10;;;9.93;;
75993;SDS011;64680;53.800;9.988;2024-02-15T08:50:33;26.42;;;10.10;;
75993;SDS011;64680;53.800;9.988;2024-02-15T08:53:04;27.70;;;10.27;;
75993;SDS011;64680;53.800;9.988;2024-02-15T08:55:40;25.70;;;9.82;;
75993;SDS011;64680;53.800;9.988;2024-02-15T08:58:05;21.52;;;9.43;;
75993;SDS011;64680;53.800;9.988;2024-02-15T09:00:31;26.08;;;10.23;;
75993;SDS011;64680;53.800;9.988;2024-02-15T09:02:58;25.80;;;9.05;;
75993;SDS011;64680;53.800;9.988;2024-02-15T09:05:24;21.83;;;9.60;;
75993;SDS011;64680;53.800;9.988;2024-02-15T09:07:50;24.02;;;9.45;;
75993;SDS011;64680;53.800;9.988;2024-02-15T09:10:16;23.50;;;8.75;;
75993;SDS011;64680;53.800;9.988;2024-02-15T09:12:43;25.48;;;10.25;;
75993;SDS011;64680;53.800;9.988;2024-02-15T09:15:12;29.77;;;10.35;;
75993;SDS011;64680;53.800;9.988;2024-02-15T09:17:39;24.50;;;9.13;;
75993;SDS011;64680;53.800;9.988;2024-02-15T09:22:32;26.75;;;9.50;;
75993;SDS011;64680;53.800;9.988;2024-02-15T09:24:58;24.27;;;9.50;;
75993;SDS011;64680;53.800;9.988;2024-02-15T09:27:25;25.67;;;10.60;;
75993;SDS011;64680;53.800;9.988;2024-02-15T09:29:51;30.50;;;10.13;;
75993;SDS011;64680;53.800;9.988;2024-02-15T09:32:22;22.98;;;9.23;;
75993;SDS011;64680;53.800;9.988;2024-02-15T09:34:48;25.50;;;9.30;;
75993;SDS011;64680;53.800;9.988;2024-02-15T09:37:14;27.23;;;10.35;;
75993;SDS011;64680;53.800;9.988;2024-02-15T09:39:40;29.38;;;9.85;;
75993;SDS011;64680;53.800;9.988;2024-02-15T09:42:06;27.08;;;10.50;;
75993;SDS011;64680;53.800;9.988;2024-02-15T09:44:32;27.02;;;10.27;;
75993;SDS011;64680;53.800;9.988;2024-02-15T09:47:05;26.33;;;10.13;;
75993;SDS011;64680;53.800;9.988;2024-02-15T09:49:38;27.10;;;10.48;;
75993;SDS011;64680;53.800;9.988;2024-02-15T09:52:07;28.50;;;10.15;;
75993;SDS011;64680;53.800;9.988;2024-02-15T09:54:41;28.40;;;10.43;;
75993;SDS011;64680;53.800;9.988;2024-02-15T09:57:08;30.38;;;10.20;;
75993;SDS011;64680;53.800;9.988;2024-02-15T09:59:35;32.40;;;11.40;;
75993;SDS011;64680;53.800;9.988;2024-02-15T10:02:02;27.23;;;10.45;;
75993;SDS011;64680;53.800;9.988;2024-02-15T10:04:28;27.88;;;11.13;;
75993;SDS011;64680;53.800;9.988;2024-02-15T10:06:54;29.52;;;11.63;;
75993;SDS011;64680;53.800;9.988;2024-02-15T10:09:24;25.50;;;10.68;;
75993;SDS011;64680;53.800;9.988;2024-02-15T10:11:57;28.10;;;10.73;;
75993;SDS011;64680;53.800;9.988;2024-02-15T10:14:24;31.33;;;11.55;;
75993;SDS011;64680;53.800;9.988;2024-02-15T10:16:53;29.90;;;12.40;;
75993;SDS011;64680;53.800;9.988;2024-02-15T10:19:20;29.58;;;11.10;;
75993;SDS011;64680;53.800;9.988;2024-02-15T10:22:06;27.30;;;10.13;;
75993;SDS011;64680;53.800;9.988;2024-02-15T10:24:32;27.75;;;11.10;;
75993;SDS011;64680;53.800;9.988;2024-02-15T10:27:03;25.33;;;10.20;;
75993;SDS011;64680;53.800;9.988;2024-02-15T10:29:33;30.08;;;11.48;;
75993;SDS011;64680;53.800;9.988;2024-02-15T10:32:00;27.20;;;10.93;;
75993;SDS011;64680;53.800;9.988;2024-02-15T10:34:27;30.88;;;11.10;;
75993;SDS011;64680;53.800;9.988;2024-02-15T10:36:54;26.92;;;12.07;;
75993;SDS011;64680;53.800;9.988;2024-02-15T10:39:23;26.17;;;11.10;;
75993;SDS011;64680;53.800;9.988;2024-02-15T10:41:50;28.35;;;11.07;;
75993;SDS011;64680;53.800;9.988;2024-02-15T10:44:21;21.33;;;9.77;;
75993;SDS011;64680;53.800;9.988;2024-02-15T10:50:32;22.00;;;10.05;;
75993;SDS011;64680;53.800;9.988;2024-02-15T10:53:01;21.50;;;9.35;;
75993;SDS011;64680;53.800;9.988;2024-02-15T10:58:23;22.98;;;10.25;;
75993;SDS011;64680;53.800;9.988;2024-02-15T11:00:56;24.13;;;10.88;;
75993;SDS011;64680;53.800;9.988;2024-02-15T11:03:34;25.80;;;12.75;;
75993;SDS011;64680;53.800;9.988;2024-02-15T11:06:05;27.17;;;11.82;;
75993;SDS011;64680;53.800;9.988;2024-02-15T11:08:36;26.13;;;12.20;;
75993;SDS011;64680;53.800;9.988;2024-02-15T11:11:10;31.20;;;12.80;;
75993;SDS011;64680;53.800;9.988;2024-02-15T11:13:39;26.75;;;12.82;;
75993;SDS011;64680;53.800;9.988;2024-02-15T11:16:07;25.75;;;12.75;;
75993;SDS011;64680;53.800;9.988;2024-02-15T11:21:11;27.58;;;12.68;;
75993;SDS011;64680;53.800;9.988;2024-02-15T11:23:37;28.90;;;12.63;;
75993;SDS011;64680;53.800;9.988;2024-02-15T11:26:04;27.63;;;13.38;;
75993;SDS011;64680;53.800;9.988;2024-02-15T11:28:36;29.90;;;12.57;;
75993;SDS011;64680;53.800;9.988;2024-02-15T11:31:06;23.15;;;11.70;;
75993;SDS011;64680;53.800;9.988;2024-02-15T11:33:36;27.05;;;12.05;;
75993;SDS011;64680;53.800;9.988;2024-02-15T11:36:03;26.10;;;11.95;;
75993;SDS011;64680;53.800;9.988;2024-02-15T11:38:39;24.48;;;11.38;;
75993;SDS011;64680;53.800;9.988;2024-02-15T11:41:11;25.52;;;11.93;;
75993;SDS011;64680;53.800;9.988;2024-02-15T11:48:44;27.73;;;12.65;;
75993;SDS011;64680;53.800;9.988;2024-02-15T11:51:24;26.60;;;11.68;;
75993;SDS011;64680;53.800;9.988;2024-02-15T11:54:01;24.08;;;11.48;;
75993;SDS011;64680;53.800;9.988;2024-02-15T11:59:08;24.95;;;11.93;;
75993;SDS011;64680;53.800;9.988;2024-02-15T12:01:43;28.58;;;12.77;;
75993;SDS011;64680;53.800;9.988;2024-02-15T12:04:28;28.92;;;13.35;;
75993;SDS011;64680;53.800;9.988;2024-02-15T12:07:13;25.80;;;13.05;;
75993;SDS011;64680;53.800;9.988;2024-02-15T12:09:58;32.33;;;13.82;;
75993;SDS011;64680;53.800;9.988;2024-02-15T12:12:53;26.25;;;11.93;;
75993;SDS011;64680;53.800;9.988;2024-02-15T12:15:37;26.70;;;12.63;;
75993;SDS011;64680;53.800;9.988;2024-02-15T12:18:22;25.02;;;13.73;;
75993;SDS011;64680;53.800;9.988;2024-02-15T12:21:12;25.92;;;12.38;;
75993;SDS011;64680;53.800;9.988;2024-02-15T12:23:42;29.38;;;13.43;;
75993;SDS011;64680;53.800;9.988;2024-02-15T12:26:10;25.67;;;12.68;;
75993;SDS011;64680;53.800;9.988;2024-02-15T12:28:41;27.73;;;12.57;;
75993;SDS011;64680;53.800;9.988;2024-02-15T12:31:08;29.42;;;12.82;;
75993;SDS011;64680;53.800;9.988;2024-02-15T12:33:35;27.38;;;13.95;;
75993;SDS011;64680;53.800;9.988;2024-02-15T12:36:05;24.42;;;12.13;;
75993;SDS011;64680;53.800;9.988;2024-02-15T12:38:32;26.00;;;12.10;;
75993;SDS011;64680;53.800;9.988;2024-02-15T12:41:05;22.55;;;11.32;;
75993;SDS011;64680;53.800;9.988;2024-02-15T12:43:45;23.70;;;11.68;;
75993;SDS011;64680;53.800;9.988;2024-02-15T12:46:12;22.05;;;10.98;;
75993;SDS011;64680;53.800;9.988;2024-02-15T12:48:42;21.45;;;10.68;;
75993;SDS011;64680;53.800;9.988;2024-02-15T12:51:14;22.17;;;11.73;;
75993;SDS011;64680;53.800;9.988;2024-02-15T12:53:41;23.95;;;11.30;;
75993;SDS011;64680;53.800;9.988;2024-02-15T12:56:07;22.38;;;10.70;;
75993;SDS011;64680;53.800;9.988;2024-02-15T12:58:36;20.13;;;10.48;;
75993;SDS011;64680;53.800;9.988;2024-02-15T13:01:04;21.48;;;11.05;;
75993;SDS011;64680;53.800;9.988;2024-02-15T13:03:30;22.35;;;10.70;;
75993;SDS011;64680;53.800;9.988;2024-02-15T13:05:56;22.15;;;9.77;;
75993;SDS011;64680;53.800;9.988;2024-02-15T13:08:22;21.40;;;10.55;;
75993;SDS011;64680;53.800;9.988;2024-02-15T13:10:48;22.65;;;10.60;;
75993;SDS011;64680;53.800;9.988;2024-02-15T13:13:15;16.25;;;9.45;;
75993;SDS011;64680;53.800;9.988;2024-02-15T13:15:41;17.90;;;9.65;;
75993;SDS011;64680;53.800;9.988;2024-02-15T13:18:07;15.15;;;8.23;;
75993;SDS011;64680;53.800;9.988;2024-02-15T13:20:38;19.30;;;9.05;;
75993;SDS011;64680;53.800;9.988;2024-02-15T13:23:05;17.20;;;9.27;;
75993;SDS011;64680;53.800;9.988;2024-02-15T13:25:40;19.48;;;9.98;;
75993;SDS011;64680;53.800;9.988;2024-02-15T13:28:08;17.58;;;9.98;;
75993;SDS011;64680;53.800;9.988;2024-02-15T13:30:38;17.35;;;8.95;;
75993;SDS011;64680;53.800;9.988;2024-02-15T13:33:04;19.52;;;9.00;;
75993;SDS011;64680;53.800;9.988;2024-02-15T13:35:31;17.23;;;9.70;;
75993;SDS011;64680;53.800;9.988;2024-02-15T13:37:57;18.08;;;9.65;;
75993;SDS011;64680;53.800;9.988;2024-02-15T13:40:27;16.13;;;9.20;;
75993;SDS011;64680;53.800;9.988;2024-02-15T13:42:57;17.95;;;9.82;;
75993;SDS011;64680;53.800;9.988;2024-02-15T13:48:09;19.35;;;9.55;;
75993;SDS011;64680;53.800;9.988;2024-02-15T13:50:38;16.88;;;9.82;;
75993;SDS011;64680;53.800;9.988;2024-02-15T13:53:04;18.27;;;10.02;;
75993;SDS011;64680;53.800;9.988;2024-02-15T13:55:31;19.48;;;10.00;;
75993;SDS011;64680;53.800;9.988;2024-02-15T13:57:57;20.27;;;10.10;;
75993;SDS011;64680;53.800;9.988;2024-02-15T14:00:24;20.45;;;10.40;;
75993;SDS011;64680;53.800;9.988;2024-02-15T14:02:59;23.58;;;11.93;;
75993;SDS011;64680;53.800;9.988;2024-02-15T14:05:31;20.08;;;11.15;;
75993;SDS011;64680;53.800;9.988;2024-02-15T14:08:06;22.52;;;12.50;;
75993;SDS011;64680;53.800;9.988;2024-02-15T14:10:36;22.98;;;11.55;;
75993;SDS011;64680;53.800;9.988;2024-02-15T14:13:02;23.58;;;12.27;;
75993;SDS011;64680;53.800;9.988;2024-02-15T14:15:34;22.35;;;10.95;;
75993;SDS011;64680;53.800;9.988;2024-02-15T14:18:28;20.42;;;11.00;;
75993;SDS011;64680;53.800;9.988;2024-02-15T14:20:54;23.58;;;11.93;;
75993;SDS011;64680;53.800;9.988;2024-02-15T14:23:31;22.42;;;12.00;;
75993;SDS011;64680;53.800;9.988;2024-02-15T14:26:15;25.85;;;12.23;;
75993;SDS011;64680;53.800;9.988;2024-02-15T14:28:42;23.60;;;12.52;;
75993;SDS011;64680;53.800;9.988;2024-02-15T14:31:10;26.13;;;14.13;;
75993;SDS011;64680;53.800;9.988;2024-02-15T14:33:55;25.20;;;13.23;;
75993;SDS011;64680;53.800;9.988;2024-02-15T14:36:21;25.52;;;12.90;;
75993;SDS011;64680;53.800;9.988;2024-02-15T14:38:47;22.02;;;12.32;;
75993;SDS011;64680;53.800;9.988;2024-02-15T14:41:13;25.15;;;14.05;;
75993;SDS011;64680;53.800;9.988;2024-02-15T14:43:39;25.20;;;13.35;;
75993;SDS011;64680;53.800;9.988;2024-02-15T14:46:05;27.52;;;13.30;;
75993;SDS011;64680;53.800;9.988;2024-02-15T14:48:35;24.98;;;13.63;;
75993;SDS011;64680;53.800;9.988;2024-02-15T14:51:05;24.33;;;12.98;;
75993;SDS011;64680;53.800;9.988;2024-02-15T14:53:31;25.23;;;13.85;;
75993;SDS011;64680;53.800;9.988;2024-02-15T14:55:58;25.52;;;12.95;;
75993;SDS011;64680;53.800;9.988;2024-02-15T14:58:47;29.23;;;14.85;;
75993;SDS011;64680;53.800;9.988;2024-02-15T15:01:13;25.98;;;13.98;;
75993;SDS011;64680;53.800;9.988;2024-02-15T15:03:40;25.83;;;14.52;;
75993;SDS011;64680;53.800;9.988;2024-02-15T15:06:08;28.33;;;14.90;;